Time;durP1;ratioP1;P1;durP2;ratioP2;P2;SDS_P1;SDS_P2;PMS_P1;PMS_P2;Temp;Humidity;BMP_temperature;BMP_pressure;BME280_temperature;BME280_humidity;BME280_pressure;Samples;Min_cycle;Max_cycle;Signal;HPM_P1;HPM_P2
2021/08/04 00:01:38;;;;;;;14.90;8.30;;;;;;;13.94;90.27;101598.28;4979412;28;20073;-71
2021/08/04 00:04:06;;;;;;;13.68;8.00;;;;;;;13.88;90.32;101603.03;4977076;28;20054;-71
2021/08/04 00:06:36;;;;;;;12.20;7.43;;;;;;;13.85;90.15;101598.63;4979475;28;20098;-72
2021/08/04 00:09:05;;;;;;;13.38;7.88;;;;;;;13.80;90.32;101590.72;4979946;28;20066;-72
2021/08/04 00:11:34;;;;;;;13.63;8.00;;;;;;;13.78;90.91;101591.72;4980325;28;20062;-71
2021/08/04 00:14:02;;;;;;;14.20;7.97;;;;;;;13.74;90.56;101596.31;4978786;28;20058;-72
2021/08/04 00:16:33;;;;;;;15.57;8.32;;;;;;;13.71;91.60;101590.16;4979040;28;20647;-72
2021/08/04 00:19:01;;;;;;;13.90;8.20;;;;;;;13.69;91.33;101592.00;4980017;28;20077;-72
2021/08/04 00:21:30;;;;;;;13.73;7.55;;;;;;;13.64;91.50;101590.34;4977837;28;20409;-72
2021/08/04 00:23:59;;;;;;;14.52;7.70;;;;;;;13.58;91.20;101601.28;4979582;28;20061;-72
2021/08/04 00:26:27;;;;;;;13.68;8.15;;;;;;;13.56;91.52;101591.53;4977997;28;20078;-72
2021/08/04 00:28:55;;;;;;;12.23;7.00;;;;;;;13.53;91.67;101589.81;4980396;28;20096;-72
2021/08/04 00:31:23;;;;;;;15.05;7.70;;;;;;;13.48;91.73;101589.09;4977373;28;20066;-71
2021/08/04 00:33:51;;;;;;;13.15;7.38;;;;;;;13.43;91.75;101586.59;4977662;28;20183;-72
2021/08/04 00:36:19;;;;;;;12.85;7.43;;;;;;;13.36;91.08;101593.03;4978352;28;20062;-71
2021/08/04 00:38:49;;;;;;;14.63;7.90;;;;;;;13.35;93.12;101585.03;4979824;28;20329;-72
2021/08/04 00:41:18;;;;;;;15.10;7.40;;;;;;;13.33;93.03;101590.47;4979162;28;20065;-72
2021/08/04 00:43:46;;;;;;;13.80;7.65;;;;;;;13.30;92.50;101587.88;4982086;28;20065;-72
2021/08/04 00:46:15;;;;;;;12.65;8.10;;;;;;;13.26;92.75;101589.78;4981139;28;20062;-72
2021/08/04 00:48:43;;;;;;;14.82;8.27;;;;;;;13.23;92.64;101591.66;4978688;28;20148;-72
2021/08/04 00:51:12;;;;;;;13.18;8.05;;;;;;;13.20;92.50;101589.94;4981147;28;20350;-72
2021/08/04 00:53:40;;;;;;;14.60;7.47;;;;;;;13.17;92.08;101591.84;4977764;28;20133;-72
2021/08/04 00:56:09;;;;;;;14.95;8.35;;;;;;;13.16;92.68;101588.31;4979979;28;20057;-72
2021/08/04 00:58:41;;;;;;;15.70;8.23;;;;;;;13.12;93.09;101591.09;4978748;28;20054;-71
2021/08/04 01:01:14;;;;;;;13.55;7.85;;;;;;;13.08;92.78;101591.19;4977217;28;20047;-71
2021/08/04 01:03:45;;;;;;;16.00;8.52;;;;;;;13.04;93.22;101592.22;4978748;28;20073;-71
2021/08/04 01:06:18;;;;;;;15.32;8.35;;;;;;;13.00;93.41;101587.00;4977858;28;20070;-71
2021/08/04 01:08:53;;;;;;;15.32;7.88;;;;;;;12.92;93.34;101587.22;4978204;28;20065;-71
2021/08/04 01:11:25;;;;;;;16.08;8.18;;;;;;;12.88;93.24;101589.13;4976341;28;20070;-71
2021/08/04 01:13:55;;;;;;;16.55;8.30;;;;;;;12.85;93.27;101589.19;4976765;28;20118;-71
2021/08/04 01:16:28;;;;;;;15.73;8.35;;;;;;;12.85;93.57;101599.91;4978334;28;20329;-75
2021/08/04 01:19:02;;;;;;;16.73;8.75;;;;;;;12.84;93.47;101592.81;4977498;28;20093;-75
2021/08/04 01:21:36;;;;;;;17.52;8.30;;;;;;;12.85;94.16;101596.38;4978946;28;20339;-76
2021/08/04 01:24:10;;;;;;;16.95;8.93;;;;;;;12.82;94.08;101602.72;4976695;28;20069;-75
2021/08/04 01:26:40;;;;;;;15.93;8.23;;;;;;;12.77;93.41;101601.06;4976580;28;20047;-76
2021/08/04 01:29:11;;;;;;;17.20;9.50;;;;;;;12.75;94.16;101600.25;4977194;28;20343;-75
2021/08/04 01:31:41;;;;;;;18.45;10.13;;;;;;;12.76;94.65;101599.31;4978894;28;20062;-76
2021/08/04 01:34:10;;;;;;;16.17;9.10;;;;;;;12.77;93.78;101601.97;4977495;28;20141;-75
2021/08/04 01:36:39;;;;;;;17.92;9.60;;;;;;;12.78;94.46;101606.38;4973511;28;20066;-76
2021/08/04 01:39:09;;;;;;;18.17;10.25;;;;;;;12.82;94.93;101594.69;4978157;28;20433;-76
2021/08/04 01:41:40;;;;;;;17.65;10.05;;;;;;;12.85;94.22;101599.03;4976354;28;20301;-75
2021/08/04 01:44:09;;;;;;;19.58;10.50;;;;;;;12.85;94.74;101589.19;4977867;28;20571;-76
2021/08/04 01:46:38;;;;;;;18.10;9.43;;;;;;;12.88;94.79;101593.59;4977063;28;20479;-72
2021/08/04 01:49:06;;;;;;;18.63;9.90;;;;;;;12.87;94.71;101600.78;4982097;28;20151;-71
2021/08/04 01:51:35;;;;;;;20.42;10.05;;;;;;;12.87;94.82;101595.41;4984266;28;20046;-71
2021/08/04 01:54:04;;;;;;;22.05;9.88;;;;;;;12.88;94.84;101593.59;4979555;28;20066;-71
2021/08/04 01:56:32;;;;;;;19.08;9.95;;;;;;;12.88;95.09;101598.97;4981313;28;20463;-71
2021/08/04 01:59:01;;;;;;;17.40;9.23;;;;;;;12.91;95.45;101592.66;4981357;28;20160;-73
2021/08/04 02:01:29;;;;;;;18.35;10.48;;;;;;;12.89;95.63;101592.69;4980775;28;20326;-71
2021/08/04 02:03:57;;;;;;;20.90;11.45;;;;;;;12.89;95.96;101595.38;4981991;28;20291;-71
2021/08/04 02:06:31;;;;;;;21.05;11.32;;;;;;;12.87;95.77;101597.19;4980321;28;20063;-71
2021/08/04 02:09:03;;;;;;;21.08;11.90;;;;;;;12.87;96.06;101591.84;4982251;28;20529;-75
2021/08/04 02:11:49;;;;;;;21.02;11.23;;;;;;;12.83;95.90;101595.53;4981708;28;20102;-75
2021/08/04 02:14:22;;;;;;;20.92;10.85;;;;;;;12.79;95.97;101594.75;4981779;28;20066;-73
2021/08/04 02:17:02;;;;;;;20.02;10.27;;;;;;;12.75;95.22;101598.44;4981751;28;20169;-71
2021/08/04 02:19:32;;;;;;;20.50;9.65;;;;;;;12.70;95.08;101595.00;4979753;28;20445;-71
2021/08/04 02:22:04;;;;;;;21.58;10.75;;;;;;;12.65;95.46;101595.16;4982927;28;20081;-71
2021/08/04 02:24:34;;;;;;;18.70;9.80;;;;;;;12.58;95.36;101588.22;4982729;28;20369;-72
2021/08/04 02:27:05;;;;;;;20.13;10.98;;;;;;;12.57;96.08;101586.47;4982191;28;20067;-71
2021/08/04 02:29:40;;;;;;;18.33;9.85;;;;;;;12.55;96.19;101593.66;4982103;28;20465;-76
2021/08/04 02:32:08;;;;;;;19.25;11.57;;;;;;;12.56;96.64;101583.81;4979427;28;20066;-71
2021/08/04 02:34:37;;;;;;;21.73;10.60;;;;;;;12.55;96.04;101580.28;4981644;28;20338;-71
2021/08/04 02:37:05;;;;;;;17.35;10.07;;;;;;;12.60;96.78;101580.13;4982013;28;20117;-71
2021/08/04 02:39:33;;;;;;;20.30;10.52;;;;;;;12.58;96.68;101581.97;4980333;28;20294;-72
2021/08/04 02:42:01;;;;;;;18.73;9.82;;;;;;;12.57;96.65;101581.13;4982619;28;20285;-72
2021/08/04 02:44:29;;;;;;;20.20;10.02;;;;;;;12.58;97.40;101577.53;4978669;28;20555;-72
2021/08/04 02:46:59;;;;;;;22.48;11.93;;;;;;;12.57;97.59;101572.22;4980612;28;20070;-72
2021/08/04 02:49:26;;;;;;;20.80;10.38;;;;;;;12.53;98.01;101571.38;4981524;28;20047;-72
2021/08/04 02:51:54;;;;;;;21.13;11.27;;;;;;;12.50;98.01;101571.50;4981813;28;20427;-72
2021/08/04 02:54:22;;;;;;;19.55;11.15;;;;;;;12.49;98.03;101569.75;4981226;28;20094;-71
2021/08/04 02:56:50;;;;;;;21.13;11.20;;;;;;;12.46;97.71;101570.72;4980749;28;20109;-71
2021/08/04 02:59:18;;;;;;;18.95;10.10;;;;;;;12.46;97.82;101570.72;4976740;28;20077;-76
2021/08/04 03:01:46;;;;;;;18.70;10.57;;;;;;;12.46;98.22;101569.81;4978235;28;20093;-75
2021/08/04 03:04:15;;;;;;;19.63;10.88;;;;;;;12.42;98.27;101562.81;4978852;28;20048;-75
2021/08/04 03:06:43;;;;;;;21.55;11.52;;;;;;;12.42;98.89;101568.16;4981574;28;20062;-71
2021/08/04 03:09:10;;;;;;;19.05;10.13;;;;;;;12.38;99.06;101569.16;4981155;28;20049;-71
2021/08/04 03:11:39;;;;;;;22.00;10.70;;;;;;;12.34;99.10;101565.69;4981446;28;20128;-70
2021/08/04 03:14:07;;;;;;;22.42;11.63;;;;;;;12.33;99.71;101569.31;4979998;28;20070;-71
2021/08/04 03:16:35;;;;;;;22.30;11.88;;;;;;;12.29;99.82;101570.28;4981105;28;20089;-71
2021/08/04 03:19:03;;;;;;;18.45;9.68;;;;;;;12.26;99.08;101565.91;4979385;28;20144;-71
2021/08/04 03:21:32;;;;;;;20.83;11.35;;;;;;;12.25;99.42;101568.63;4981691;28;20094;-71
2021/08/04 03:24:00;;;;;;;20.63;10.30;;;;;;;12.24;100.00;101566.88;4979415;28;20085;-71
2021/08/04 03:26:28;;;;;;;22.65;11.68;;;;;;;12.23;100.00;101570.47;4981682;28;20058;-71
2021/08/04 03:28:56;;;;;;;22.60;11.43;;;;;;;12.22;100.00;101571.38;4980608;28;20074;-72
2021/08/04 03:31:24;;;;;;;21.15;10.75;;;;;;;12.19;99.41;101572.38;4979071;28;20054;-72
2021/08/04 03:33:52;;;;;;;21.42;10.73;;;;;;;12.18;100.00;101569.72;4980187;28;20066;-71
2021/08/04 03:36:20;;;;;;;17.42;9.98;;;;;;;12.13;99.97;101562.69;4980976;28;20074;-71
2021/08/04 03:38:49;;;;;;;19.27;10.95;;;;;;;12.03;98.51;101560.31;4981176;28;20074;-72
2021/08/04 03:41:17;;;;;;;22.08;11.43;;;;;;;11.99;99.44;101572.03;4980611;28;20043;-71
2021/08/04 03:43:45;;;;;;;20.58;11.07;;;;;;;11.94;99.09;101567.66;4979263;28;20117;-72
2021/08/04 03:46:13;;;;;;;17.88;10.23;;;;;;;11.92;99.31;101573.97;4983093;28;20070;-72
2021/08/04 03:48:41;;;;;;;19.90;10.85;;;;;;;11.91;98.83;101572.22;4980560;28;20097;-72
2021/08/04 03:51:09;;;;;;;20.95;10.88;;;;;;;11.86;99.41;101574.09;4978950;28;20346;-72
2021/08/04 03:53:37;;;;;;;21.92;10.57;;;;;;;11.83;99.67;101568.81;4977014;28;20594;-72
2021/08/04 03:56:06;;;;;;;21.17;11.32;;;;;;;11.80;99.29;101574.22;4978991;28;20049;-72
2021/08/04 03:58:34;;;;;;;17.92;9.77;;;;;;;11.78;99.29;101572.50;4978734;28;20050;-71
2021/08/04 04:01:05;;;;;;;19.67;10.57;;;;;;;11.77;99.51;101569.84;4979604;28;20526;-75
2021/08/04 04:03:42;;;;;;;18.08;10.15;;;;;;;11.75;99.40;101575.25;4981487;28;20059;-72
2021/08/04 04:06:11;;;;;;;21.70;9.98;;;;;;;11.75;99.33;101577.03;4977890;28;20124;-73
2021/08/04 04:08:39;;;;;;;18.05;10.27;;;;;;;11.74;99.32;101569.94;4979056;28;20153;-75
2021/08/04 04:11:09;;;;;;;22.38;11.27;;;;;;;11.70;100.00;101570.94;4981823;28;20113;-73
2021/08/04 04:13:37;;;;;;;20.20;10.05;;;;;;;11.65;98.94;101586.22;4979147;28;20321;-73
2021/08/04 04:16:05;;;;;;;17.75;9.60;;;;;;;11.61;98.36;101579.16;4980436;28;20058;-73
2021/08/04 04:18:33;;;;;;;17.25;9.85;;;;;;;11.56;98.56;101588.19;4976579;28;20076;-73
2021/08/04 04:21:01;;;;;;;18.52;9.70;;;;;;;11.55;99.42;101581.06;4979808;28;20066;-73
2021/08/04 04:23:29;;;;;;;19.00;10.27;;;;;;;11.54;99.07;101589.13;4981945;28;20121;-73
2021/08/04 04:25:57;;;;;;;17.38;9.85;;;;;;;11.53;98.75;101593.59;4975794;28;20051;-72
2021/08/04 04:28:26;;;;;;;20.90;11.50;;;;;;;11.55;99.72;101599.78;4977412;28;20042;-73
2021/08/04 04:30:54;;;;;;;23.52;12.25;;;;;;;11.55;99.94;101598.91;4977541;28;20407;-73
2021/08/04 04:33:21;;;;;;;30.85;16.30;;;;;;;11.54;100.00;101597.16;4979413;28;20061;-73
2021/08/04 04:35:49;;;;;;;33.78;15.73;;;;;;;11.54;99.68;101602.50;4982445;28;20128;-72
2021/08/04 04:38:17;;;;;;;26.23;13.35;;;;;;;11.56;99.97;101601.56;4978568;28;20150;-72
2021/08/04 04:40:46;;;;;;;21.23;11.75;;;;;;;11.55;99.69;101598.91;4977146;28;20062;-73
2021/08/04 04:43:13;;;;;;;26.48;12.40;;;;;;;11.56;99.15;101597.97;4978150;28;20070;-72
2021/08/04 04:45:43;;;;;;;22.15;11.07;;;;;;;11.58;99.92;101598.84;4979675;28;20108;-72
2021/08/04 04:48:11;;;;;;;24.00;11.52;;;;;;;11.63;99.90;101604.06;4976145;28;20819;-72
2021/08/04 04:50:39;;;;;;;19.88;10.63;;;;;;;11.61;99.29;101603.22;4977704;28;20074;-72
2021/08/04 04:53:06;;;;;;;24.02;12.40;;;;;;;11.62;99.91;101608.53;4979097;28;20070;-72
2021/08/04 04:55:35;;;;;;;21.52;11.95;;;;;;;11.70;100.00;101600.34;4975258;28;20121;-72
2021/08/04 04:58:03;;;;;;;25.70;12.25;;;;;;;11.72;100.00;101601.19;4979393;28;20368;-73
2021/08/04 05:00:32;;;;;;;17.77;10.48;;;;;;;11.73;99.82;101605.59;4977016;28;20339;-73
2021/08/04 05:03:04;;;;;;;22.52;10.90;;;;;;;11.74;99.82;101607.34;4978440;28;20066;-78
2021/08/04 05:05:33;;;;;;;22.48;10.85;;;;;;;11.79;99.55;101608.13;4982080;28;20058;-75
2021/08/04 05:08:13;;;;;;;22.98;11.43;;;;;;;11.83;100.00;101604.44;4977771;28;20280;-77
2021/08/04 05:10:44;;;;;;;23.27;11.52;;;;;;;11.89;100.00;101606.09;4981812;28;20091;-78
2021/08/04 05:13:12;;;;;;;21.77;11.75;;;;;;;11.96;100.00;101610.41;4981391;28;20341;-78
2021/08/04 05:15:40;;;;;;;21.02;10.68;;;;;;;12.02;100.00;101609.34;4981233;28;20539;-77
2021/08/04 05:18:09;;;;;;;18.20;10.15;;;;;;;12.07;99.99;101608.34;4980720;28;20066;-78
2021/08/04 05:20:37;;;;;;;21.67;11.30;;;;;;;12.24;100.00;101605.22;4978503;28;20047;-76
2021/08/04 05:23:05;;;;;;;19.98;11.32;;;;;;;12.42;100.00;101611.00;4978906;28;20120;-75
2021/08/04 05:25:39;;;;;;;22.05;11.13;;;;;;;12.52;99.81;101605.31;4978791;28;20090;-76
2021/08/04 05:28:08;;;;;;;22.83;11.00;;;;;;;12.71;99.36;101613.72;4978279;28;20038;-75
2021/08/04 05:30:36;;;;;;;18.75;11.25;;;;;;;12.91;99.40;101611.41;4981984;28;20066;-76
2021/08/04 05:33:04;;;;;;;23.45;12.43;;;;;;;13.11;99.54;101613.47;4976763;28;20797;-76
2021/08/04 05:35:33;;;;;;;20.30;11.98;;;;;;;13.27;98.62;101617.44;4978689;28;20158;-78
2021/08/04 05:38:01;;;;;;;20.35;11.15;;;;;;;13.46;97.98;101620.44;4974715;28;20062;-76
2021/08/04 05:40:28;;;;;;;20.67;11.00;;;;;;;13.64;97.41;101619.00;4978863;28;20105;-77
2021/08/04 05:42:57;;;;;;;24.60;12.55;;;;;;;13.82;97.40;101626.44;4976533;28;20070;-77
2021/08/04 05:45:25;;;;;;;19.48;11.20;;;;;;;13.96;96.54;101617.03;4977116;28;20062;-72
2021/08/04 05:47:58;;;;;;;21.25;11.93;;;;;;;14.10;95.94;101620.13;4982018;28;20077;-73
2021/08/04 05:50:26;;;;;;;24.33;12.60;;;;;;;14.11;95.52;101618.31;4975399;28;20085;-73
2021/08/04 05:52:55;;;;;;;21.08;11.20;;;;;;;14.04;95.56;101620.31;4977105;28;20066;-73
2021/08/04 05:55:23;;;;;;;22.83;12.07;;;;;;;13.99;95.61;101617.78;4975450;28;20073;-72
2021/08/04 05:57:51;;;;;;;21.63;11.75;;;;;;;14.06;95.58;101621.16;4978952;28;20062;-73
2021/08/04 06:00:27;;;;;;;19.95;11.30;;;;;;;14.10;95.48;101622.81;4977875;28;20066;-76
2021/08/04 06:02:55;;;;;;;20.25;10.82;;;;;;;14.18;95.16;101619.84;4977485;28;20064;-74
2021/08/04 06:05:23;;;;;;;20.80;11.75;;;;;;;14.28;95.15;101628.47;4979091;28;20062;-72
2021/08/04 06:07:51;;;;;;;23.02;13.02;;;;;;;14.24;94.58;101622.34;4976538;28;20383;-73
2021/08/04 06:10:21;;;;;;;25.05;11.80;;;;;;;14.61;94.05;101625.53;4978395;28;20078;-74
2021/08/04 06:12:49;;;;;;;23.00;11.85;;;;;;;14.82;92.66;101618.50;4977890;28;20274;-74
2021/08/04 06:15:17;;;;;;;21.65;13.25;;;;;;;14.94;92.11;101624.28;4976113;28;20117;-74
2021/08/04 06:17:45;;;;;;;22.67;13.45;;;;;;;15.16;90.71;101612.72;4978798;28;20149;-72
2021/08/04 06:20:13;;;;;;;21.40;12.63;;;;;;;15.30;89.81;101612.16;4973483;28;20077;-72
2021/08/04 06:22:41;;;;;;;21.27;11.85;;;;;;;15.60;89.11;101618.13;4978335;28;20073;-75
2021/08/04 06:25:11;;;;;;;20.67;10.85;;;;;;;15.72;88.23;101613.19;4975713;28;20467;-73
2021/08/04 06:27:41;;;;;;;21.17;12.48;;;;;;;15.94;87.11;101615.91;4976599;28;20184;-74
2021/08/04 06:30:14;;;;;;;22.98;12.43;;;;;;;16.09;86.54;101614.34;4978524;28;20090;-73
2021/08/04 06:32:42;;;;;;;23.17;12.10;;;;;;;16.32;84.93;101616.06;4970514;28;20081;-73
2021/08/04 06:35:11;;;;;;;21.23;11.98;;;;;;;16.45;85.11;101611.88;4979238;28;20093;-74
2021/08/04 06:37:39;;;;;;;22.10;12.48;;;;;;;16.55;83.10;101610.53;4972896;28;20376;-73
2021/08/04 06:40:08;;;;;;;22.67;11.98;;;;;;;16.71;82.35;101609.84;4977909;28;20124;-75
2021/08/04 06:42:36;;;;;;;22.08;12.68;;;;;;;16.67;81.30;101602.81;4979627;28;20982;-74
2021/08/04 06:45:06;;;;;;;21.92;12.38;;;;;;;16.98;80.94;101607.72;4979915;28;20066;-73
2021/08/04 06:47:34;;;;;;;18.92;11.75;;;;;;;17.17;80.06;101600.50;4981745;28;20066;-73
2021/08/04 06:50:08;;;;;;;22.85;12.00;;;;;;;17.34;79.79;101613.16;4980635;28;20058;-75
2021/08/04 06:52:44;;;;;;;20.40;12.63;;;;;;;17.46;77.74;101609.00;4980331;28;20113;-75
2021/08/04 06:55:13;;;;;;;22.98;12.45;;;;;;;17.72;78.56;101609.53;4982405;28;20043;-74
2021/08/04 06:57:41;;;;;;;20.38;11.00;;;;;;;17.90;76.85;101611.34;4981711;28;20066;-75
2021/08/04 07:00:12;;;;;;;19.17;9.50;;;;;;;18.09;76.71;101611.28;4981306;28;20108;-74
2021/08/04 07:02:40;;;;;;;18.70;10.38;;;;;;;18.09;75.91;101613.13;4979660;28;20062;-75
2021/08/04 07:05:10;;;;;;;18.42;9.52;;;;;;;18.38;75.13;101610.72;4980513;28;20058;-73
2021/08/04 07:07:38;;;;;;;16.70;9.88;;;;;;;18.47;73.80;101610.22;4978219;28;20089;-75
2021/08/04 07:10:06;;;;;;;16.58;9.40;;;;;;;18.54;72.14;101608.97;4976920;28;20077;-75
2021/08/04 07:12:38;;;;;;;19.15;9.70;;;;;;;18.50;71.43;101614.59;4976576;28;20446;-76
2021/08/04 07:15:08;;;;;;;16.40;8.38;;;;;;;18.46;70.83;101611.19;4976717;28;20174;-75
2021/08/04 07:17:45;;;;;;;18.90;8.45;;;;;;;18.87;69.88;101610.81;4979112;28;20727;-77
2021/08/04 07:20:15;;;;;;;16.08;9.32;;;;;;;19.01;70.34;101607.34;4975015;28;20063;-76
2021/08/04 07:22:43;;;;;;;20.13;9.23;;;;;;;18.98;69.66;101605.69;4979009;28;20058;-76
2021/08/04 07:25:17;;;;;;;19.50;9.48;;;;;;;19.06;69.71;101601.72;4978419;28;20145;-74
2021/08/04 07:27:45;;;;;;;15.70;8.63;;;;;;;19.40;68.01;101609.66;4976032;28;20066;-76
2021/08/04 07:30:14;;;;;;;17.80;9.40;;;;;;;19.63;67.60;101606.56;4978979;28;20051;-72
2021/08/04 07:32:45;;;;;;;14.18;8.43;;;;;;;19.75;67.42;101601.38;4975057;28;20062;-74
2021/08/04 07:35:19;;;;;;;13.03;7.40;;;;;;;20.06;65.63;101601.38;4978740;28;20050;-74
2021/08/04 07:37:50;;;;;;;14.75;7.70;;;;;;;20.07;64.10;101603.97;4977104;28;20528;-72
2021/08/04 07:40:58;;;;;;;14.00;7.28;;;;;;;20.22;63.47;101604.03;4975409;28;20066;-74
2021/08/04 07:43:26;;;;;;;16.95;7.70;;;;;;;20.55;62.67;101601.09;4976743;28;20050;-74
2021/08/04 07:45:54;;;;;;;11.93;7.22;;;;;;;20.48;62.32;101597.91;4976369;28;20059;-74
2021/08/04 07:48:23;;;;;;;12.38;6.47;;;;;;;20.59;61.18;101597.22;4978842;28;20062;-73
2021/08/04 07:50:51;;;;;;;12.07;6.63;;;;;;;20.70;60.11;101604.69;4975796;28;20408;-74
2021/08/04 07:53:19;;;;;;;11.75;6.53;;;;;;;20.59;60.47;101599.94;4977230;28;20476;-73
2021/08/04 07:55:47;;;;;;;10.95;5.82;;;;;;;20.93;59.66;101592.41;4977077;28;20585;-74
2021/08/04 07:58:15;;;;;;;11.48;6.70;;;;;;;21.05;58.96;101599.75;4976326;28;20441;-74
2021/08/04 08:00:42;;;;;;;11.30;6.10;;;;;;;20.90;59.39;101596.19;4975964;28;20069;-73
2021/08/04 08:03:10;;;;;;;11.73;6.43;;;;;;;20.96;58.35;101589.50;4974573;28;20076;-73
2021/08/04 08:05:40;;;;;;;10.82;6.43;;;;;;;21.44;58.79;101591.84;4978147;28;20058;-73
2021/08/04 08:08:08;;;;;;;15.35;6.55;;;;;;;21.49;57.94;101586.13;4976817;28;20512;-73
2021/08/04 08:10:38;;;;;;;13.65;6.07;;;;;;;21.76;56.72;101583.41;4974361;28;20070;-73
2021/08/04 08:13:06;;;;;;;11.75;5.70;;;;;;;21.42;56.20;101586.50;4976137;28;20069;-73
2021/08/04 08:15:34;;;;;;;11.00;5.53;;;;;;;21.63;55.71;101586.09;4978600;28;20412;-73
2021/08/04 08:18:06;;;;;;;11.20;6.00;;;;;;;21.93;54.60;101580.41;4975970;28;20073;-73
2021/08/04 08:20:34;;;;;;;10.63;5.35;;;;;;;22.43;53.76;101579.75;4973343;28;20066;-76
2021/08/04 08:23:05;;;;;;;9.40;5.03;;;;;;;21.94;53.93;101582.16;4975366;28;20069;-78
2021/08/04 08:25:33;;;;;;;10.05;4.88;;;;;;;22.31;51.76;101578.78;4974983;28;20465;-75
2021/08/04 08:28:01;;;;;;;8.02;4.72;;;;;;;22.20;51.54;101568.59;4975530;28;20054;-75
2021/08/04 08:30:29;;;;;;;8.38;4.32;;;;;;;22.10;50.35;101572.94;4976484;28;20073;-75
2021/08/04 08:32:57;;;;;;;11.27;4.88;;;;;;;22.41;51.25;101568.09;4975301;28;20128;-75
2021/08/04 08:35:25;;;;;;;10.23;4.93;;;;;;;22.61;49.42;101570.31;4976781;28;20145;-76
2021/08/04 08:37:53;;;;;;;10.80;5.13;;;;;;;22.25;50.83;101571.88;4976215;28;20429;-75
2021/08/04 08:40:22;;;;;;;10.95;5.63;;;;;;;22.35;49.66;101567.56;4976113;28;20152;-75
2021/08/04 08:42:50;;;;;;;9.50;4.65;;;;;;;22.66;49.41;101570.84;4975429;28;20101;-76
2021/08/04 08:45:18;;;;;;;11.60;5.38;;;;;;;22.65;49.65;101570.94;4977887;28;20047;-76
2021/08/04 08:47:46;;;;;;;8.20;4.97;;;;;;;22.90;48.70;101565.47;4977047;28;20050;-74
2021/08/04 08:50:25;;;;;;;9.15;4.55;;;;;;;23.08;48.85;101563.28;4978929;28;20153;-74
2021/08/04 08:52:54;;;;;;;9.95;5.97;;;;;;;23.22;48.39;101558.66;4980248;28;20355;-75
2021/08/04 08:55:26;;;;;;;9.40;6.15;;;;;;;23.30;47.64;101561.69;4974955;28;20066;-74
2021/08/04 08:57:54;;;;;;;11.55;5.90;;;;;;;23.40;47.27;101564.59;4973276;28;20050;-75
2021/08/04 09:00:22;;;;;;;8.90;5.88;;;;;;;23.27;47.00;101564.63;4975686;28;20046;-75
2021/08/04 09:02:50;;;;;;;12.57;6.15;;;;;;;23.38;47.38;101567.44;4973716;28;20066;-74
2021/08/04 09:05:18;;;;;;;10.57;5.68;;;;;;;23.55;46.81;101566.16;4977915;28;20437;-75
2021/08/04 09:07:48;;;;;;;11.90;5.75;;;;;;;22.97;46.88;101571.34;4974778;28;20121;-75
2021/08/04 09:10:30;;;;;;;9.98;5.45;;;;;;;23.45;46.50;101571.44;4975804;28;20050;-75
2021/08/04 09:13:00;;;;;;;11.10;6.28;;;;;;;23.61;45.88;101564.81;4974723;28;20077;-76
2021/08/04 09:15:31;;;;;;;10.02;6.40;;;;;;;23.61;45.16;101562.97;4979370;28;20073;-76
2021/08/04 09:18:02;;;;;;;12.95;7.93;;;;;;;23.72;44.75;101555.81;4977132;28;20097;-74
2021/08/04 09:20:31;;;;;;;15.88;8.25;;;;;;;23.63;44.63;101562.84;4979590;28;20400;-74
2021/08/04 09:23:01;;;;;;;11.05;7.03;;;;;;;24.01;44.48;101561.81;4979214;28;20093;-74
2021/08/04 09:25:31;;;;;;;14.10;8.02;;;;;;;23.86;44.18;101558.41;4980052;28;20311;-74
2021/08/04 09:28:00;;;;;;;15.07;10.27;;;;;;;23.60;43.52;101565.78;4979950;28;20089;-74
2021/08/04 09:30:32;;;;;;;14.45;8.30;;;;;;;23.78;44.47;101556.22;4977007;28;20062;-73
2021/08/04 09:33:15;;;;;;;16.05;9.23;;;;;;;23.75;43.95;101561.03;4974936;28;20364;-72
2021/08/04 09:35:45;;;;;;;16.20;10.02;;;;;;;23.60;43.71;101557.63;4976882;28;20046;-74
2021/08/04 09:38:19;;;;;;;17.75;10.52;;;;;;;24.03;43.82;101565.28;4976087;28;20057;-73
2021/08/04 09:40:49;;;;;;;;;;;;;;;23.68;43.95;101566.09;4977704;28;20373;-77
2021/08/04 09:43:24;;;;;;;15.60;9.88;;;;;;;23.92;43.34;101562.50;4974021;28;19933;-77
2021/08/04 09:45:54;;;;;;;17.35;11.25;;;;;;;23.88;43.50;101559.16;4978546;28;20505;-75
2021/08/04 09:48:26;;;;;;;16.88;10.32;;;;;;;24.16;42.92;101555.16;4980074;28;20098;-78
2021/08/04 09:50:55;;;;;;;17.67;10.38;;;;;;;24.66;43.13;101552.16;4977872;28;20047;-77
2021/08/04 09:53:29;;;;;;;18.30;11.18;;;;;;;24.42;42.95;101555.81;4981175;28;20142;-78
2021/08/04 09:56:20;;;;;;;20.23;13.88;;;;;;;24.50;42.60;101555.22;4975581;28;20093;-79
2021/08/04 09:58:51;;;;;;;18.58;11.80;;;;;;;24.71;41.59;101544.47;4975553;28;20066;-76
2021/08/04 10:01:22;;;;;;;18.13;11.48;;;;;;;24.69;41.77;101554.63;4976575;28;20062;-75
2021/08/04 10:04:02;;;;;;;17.48;11.85;;;;;;;24.98;41.73;101554.13;4978546;28;20359;-76
2021/08/04 10:06:37;;;;;;;17.42;11.20;;;;;;;25.03;40.98;101542.81;4974091;28;20406;-75
2021/08/04 10:09:06;;;;;;;18.55;10.98;;;;;;;24.55;41.35;101553.03;4979166;28;20419;-75
2021/08/04 10:11:38;;;;;;;15.57;11.05;;;;;;;23.68;43.12;101549.75;4982420;28;20072;-73
2021/08/04 10:14:06;;;;;;;19.83;12.63;;;;;;;23.24;43.98;101553.97;4978587;28;20341;-72
2021/08/04 10:16:36;;;;;;;20.35;11.70;;;;;;;23.27;44.33;101554.59;4981150;28;20088;-72
2021/08/04 10:19:06;;;;;;;21.70;12.98;;;;;;;23.11;44.47;101554.88;4978046;28;20057;-73
2021/08/04 10:21:35;;;;;;;18.10;12.10;;;;;;;23.01;45.38;101548.34;4980439;28;20113;-72
2021/08/04 10:24:06;;;;;;;16.70;10.90;;;;;;;23.82;43.88;101551.44;4983468;28;20063;-72
2021/08/04 10:26:38;;;;;;;18.58;11.73;;;;;;;24.41;43.51;101542.28;4980874;28;20160;-73
2021/08/04 10:29:07;;;;;;;17.48;11.60;;;;;;;24.38;42.61;101543.44;4982269;28;20145;-73
2021/08/04 10:31:39;;;;;;;16.38;10.68;;;;;;;24.73;42.95;101536.16;4977938;28;20076;-72
2021/08/04 10:34:24;;;;;;;17.15;10.85;;;;;;;23.72;43.93;101547.66;4979626;28;20253;-73
2021/08/04 10:36:55;;;;;;;21.88;12.43;;;;;;;23.57;44.05;101539.69;4981983;28;20116;-73
2021/08/04 10:39:25;;;;;;;16.08;11.77;;;;;;;23.11;45.25;101540.41;4980136;28;20150;-73
2021/08/04 10:42:06;;;;;;;17.77;12.15;;;;;;;24.23;43.43;101550.97;4981872;28;20445;-72
2021/08/04 10:44:34;;;;;;;16.85;11.45;;;;;;;23.21;44.38;101538.75;4978332;28;20516;-74
2021/08/04 10:47:04;;;;;;;13.95;9.85;;;;;;;23.02;45.79;101541.03;4981529;28;20684;-73
2021/08/04 10:49:36;;;;;;;19.20;11.98;;;;;;;22.66;46.38;101537.31;4982502;28;20365;-73
2021/08/04 10:52:12;;;;;;;17.23;10.90;;;;;;;22.31;47.82;101547.03;4979522;28;20069;-73
2021/08/04 10:55:02;;;;;;;15.38;9.65;;;;;;;23.00;46.10;101532.13;4983842;28;20572;-74
2021/08/04 10:57:34;;;;;;;21.02;12.68;;;;;;;24.06;43.72;101532.34;4979532;28;20042;-72
2021/08/04 11:00:22;;;;;;;19.50;12.35;;;;;;;23.50;44.67;101530.25;4984703;28;20053;-72
2021/08/04 11:02:50;;;;;;;19.00;12.77;;;;;;;23.16;45.17;101526.47;4978080;28;20093;-73
2021/08/04 11:05:18;;;;;;;14.95;10.07;;;;;;;22.90;46.50;101530.09;4980894;28;20539;-73
2021/08/04 11:08:18;;;;;;;14.55;9.98;;;;;;;22.71;46.15;101529.69;4980761;28;20090;-73
2021/08/04 11:10:46;;;;;;;16.15;9.43;;;;;;;22.67;46.37;101528.19;4980140;28;20080;-73
2021/08/04 11:13:54;;;;;;;16.40;10.20;;;;;;;22.58;48.18;101521.56;4981094;28;20089;-73
2021/08/04 11:16:27;;;;;;;14.40;8.93;;;;;;;22.54;48.45;101518.19;4980837;28;20062;-72
2021/08/04 11:19:07;;;;;;;16.13;10.65;;;;;;;22.43;48.07;101523.53;4981046;28;20185;-73
2021/08/04 11:21:35;;;;;;;15.77;10.05;;;;;;;23.26;46.89;101516.63;4979379;28;20073;-73
2021/08/04 11:24:06;;;;;;;16.02;10.30;;;;;;;23.25;46.03;101509.44;4980757;28;20105;-73
2021/08/04 11:26:36;;;;;;;15.00;8.52;;;;;;;23.91;45.03;101512.59;4977482;28;20069;-73